AAL3527 KPIT-KALB
Flight info
| Callsign | AAL3527 |
|---|---|
| Flight time | N/A |
| Altitude | 37000 |
| Route | EWC CFB J190 ALB |
| Aircraft | B738/M-SDE2E3FGHIRWXY/LB1 |
Departure
| Time | 2026-05-03 20:21 |
|---|---|
| Airport | Pittsburgh International Airport (KPIT) |
Arrival
| Time | N/A |
|---|---|
| Airport | Albany International Airport (KALB) |
| Time | Latitude | Longitude | Altitude | Speed | Heading |
|---|---|---|---|---|---|
| 2026-05-03 20:15 | 40.49587 | -80.24343 | 1157 ft | 0 kts | 52° |
| 2026-05-03 20:16 | 40.49589 | -80.24339 | 1157 ft | 0 kts | 50° |
| 2026-05-03 20:16 | 40.49598 | -80.24326 | 1158 ft | 3 kts | 47° |
| 2026-05-03 20:16 | 40.49622 | -80.24292 | 1159 ft | 6 kts | 46° |
| 2026-05-03 20:16 | 40.49653 | -80.24245 | 1161 ft | 7 kts | 60° |
| 2026-05-03 20:17 | 40.49664 | -80.24188 | 1163 ft | 5 kts | 84° |
| 2026-05-03 20:17 | 40.49667 | -80.24146 | 1164 ft | 3 kts | 88° |
| 2026-05-03 20:17 | 40.49665 | -80.24093 | 1164 ft | 9 kts | 93° |
| 2026-05-03 20:17 | 40.49660 | -80.23988 | 1164 ft | 12 kts | 94° |
| 2026-05-03 20:18 | 40.49673 | -80.23886 | 1163 ft | 11 kts | 29° |
| 2026-05-03 20:18 | 40.49767 | -80.23875 | 1166 ft | 16 kts | 1° |
| 2026-05-03 20:18 | 40.49872 | -80.23871 | 1170 ft | 13 kts | 2° |
| 2026-05-03 20:18 | 40.49964 | -80.23867 | 1172 ft | 14 kts | 2° |
| 2026-05-03 20:19 | 40.50034 | -80.23837 | 1174 ft | 11 kts | 69° |
| 2026-05-03 20:19 | 40.50036 | -80.23722 | 1171 ft | 14 kts | 93° |
| 2026-05-03 20:19 | 40.50032 | -80.23580 | 1166 ft | 16 kts | 92° |
| 2026-05-03 20:19 | 40.50027 | -80.23418 | 1158 ft | 15 kts | 91° |
| 2026-05-03 20:20 | 40.50047 | -80.23369 | 1156 ft | 6 kts | 23° |
| 2026-05-03 20:20 | 40.50102 | -80.23364 | 1158 ft | 7 kts | 359° |
| 2026-05-03 20:20 | 40.50136 | -80.23388 | 1159 ft | 6 kts | 280° |
| 2026-05-03 20:20 | 40.50139 | -80.23501 | 1165 ft | 32 kts | 272° |
| 2026-05-03 20:21 | 40.50152 | -80.24088 | 1178 ft | 92 kts | 272° |
| 2026-05-03 20:21 | 40.50178 | -80.25182 | 1152 ft | 146 kts | 272° |
| 2026-05-03 20:21 | 40.50224 | -80.26685 | 1372 ft | 171 kts | 270° |
| 2026-05-03 20:21 | 40.50298 | -80.28153 | 2271 ft | 155 kts | 271° |
| 2026-05-03 20:22 | 40.50359 | -80.29572 | 2874 ft | 160 kts | 272° |
| 2026-05-03 20:22 | 40.50428 | -80.31049 | 3408 ft | 168 kts | 277° |
| 2026-05-03 20:22 | 40.50898 | -80.32501 | 3828 ft | 186 kts | 308° |
| 2026-05-03 20:22 | 40.52100 | -80.33369 | 4237 ft | 214 kts | 349° |
| 2026-05-03 20:23 | 40.53646 | -80.33046 | 4693 ft | 239 kts | 18° |
| 2026-05-03 20:23 | 40.55207 | -80.32188 | 5210 ft | 254 kts | 18° |
| 2026-05-03 20:23 | 40.56921 | -80.31348 | 5745 ft | 268 kts | 15° |
| 2026-05-03 20:23 | 40.58732 | -80.30592 | 6388 ft | 278 kts | 13° |
| 2026-05-03 20:24 | 40.60590 | -80.29862 | 7206 ft | 280 kts | 12° |
| 2026-05-03 20:24 | 40.62454 | -80.29137 | 8039 ft | 282 kts | 12° |
| 2026-05-03 20:24 | 40.64321 | -80.28407 | 8916 ft | 282 kts | 12° |
| 2026-05-03 20:24 | 40.66194 | -80.27669 | 9749 ft | 283 kts | 13° |
| 2026-05-03 20:25 | 40.68053 | -80.26931 | 10547 ft | 284 kts | 13° |
| 2026-05-03 20:25 | 40.69968 | -80.26173 | 11061 ft | 297 kts | 13° |
| 2026-05-03 20:25 | 40.72013 | -80.25367 | 11504 ft | 311 kts | 13° |
| 2026-05-03 20:25 | 40.74127 | -80.24532 | 12038 ft | 322 kts | 13° |
| 2026-05-03 20:26 | 40.76308 | -80.23666 | 12685 ft | 328 kts | 13° |
| 2026-05-03 20:26 | 40.78495 | -80.22789 | 13462 ft | 331 kts | 14° |
| 2026-05-03 20:26 | 40.80658 | -80.21626 | 14154 ft | 339 kts | 25° |
| 2026-05-03 20:26 | 40.82539 | -80.19741 | 14808 ft | 352 kts | 43° |
| 2026-05-03 20:27 | 40.83970 | -80.17097 | 15506 ft | 361 kts | 58° |
| 2026-05-03 20:27 | 40.85075 | -80.14080 | 16154 ft | 367 kts | 62° |
| 2026-05-03 20:27 | 40.86136 | -80.11012 | 16796 ft | 371 kts | 62° |
| 2026-05-03 20:27 | 40.87214 | -80.07883 | 17438 ft | 375 kts | 61° |
| 2026-05-03 20:28 | 40.88300 | -80.04739 | 18055 ft | 379 kts | 61° |
| 2026-05-03 20:28 | 40.89392 | -80.01595 | 18641 ft | 383 kts | 61° |
| 2026-05-03 20:28 | 40.90511 | -79.98382 | 19247 ft | 387 kts | 61° |
| 2026-05-03 20:28 | 40.91639 | -79.95142 | 19857 ft | 390 kts | 60° |
| 2026-05-03 20:29 | 40.92773 | -79.91886 | 20392 ft | 395 kts | 61° |
| 2026-05-03 20:29 | 40.93935 | -79.88551 | 20967 ft | 398 kts | 60° |
| 2026-05-03 20:29 | 40.95089 | -79.85233 | 21473 ft | 403 kts | 60° |
| 2026-05-03 20:29 | 40.96266 | -79.81846 | 22010 ft | 406 kts | 61° |
| 2026-05-03 20:30 | 40.97436 | -79.78470 | 22529 ft | 409 kts | 60° |
| 2026-05-03 20:30 | 40.98624 | -79.75035 | 22974 ft | 414 kts | 60° |
| 2026-05-03 20:30 | 40.99834 | -79.71532 | 23513 ft | 416 kts | 60° |
| 2026-05-03 20:30 | 41.01032 | -79.68063 | 23953 ft | 421 kts | 60° |
| 2026-05-03 20:31 | 41.02244 | -79.64547 | 24437 ft | 424 kts | 60° |
| 2026-05-03 20:31 | 41.03483 | -79.60942 | 24926 ft | 426 kts | 60° |
| 2026-05-03 20:31 | 41.04708 | -79.57374 | 25358 ft | 430 kts | 60° |
| 2026-05-03 20:31 | 41.05941 | -79.53778 | 25871 ft | 431 kts | 60° |
| 2026-05-03 20:32 | 41.07172 | -79.50182 | 26477 ft | 429 kts | 60° |
| 2026-05-03 20:32 | 41.08406 | -79.46574 | 27025 ft | 428 kts | 60° |
| 2026-05-03 20:32 | 41.09626 | -79.43003 | 27465 ft | 430 kts | 60° |
| 2026-05-03 20:32 | 41.10861 | -79.39388 | 27901 ft | 432 kts | 60° |
| 2026-05-03 20:33 | 41.12105 | -79.35741 | 28408 ft | 432 kts | 60° |
| 2026-05-03 20:33 | 41.13352 | -79.32076 | 28898 ft | 431 kts | 60° |
| 2026-05-03 20:33 | 41.14579 | -79.28464 | 29361 ft | 431 kts | 60° |
| 2026-05-03 20:33 | 41.15807 | -79.24844 | 29791 ft | 431 kts | 60° |
| 2026-05-03 20:34 | 41.17045 | -79.21195 | 30229 ft | 431 kts | 60° |
| 2026-05-03 20:34 | 41.18261 | -79.17607 | 30672 ft | 429 kts | 60° |
| 2026-05-03 20:34 | 41.19485 | -79.13989 | 31095 ft | 429 kts | 60° |
| 2026-05-03 20:34 | 41.20712 | -79.10365 | 31345 ft | 430 kts | 60° |
| 2026-05-03 20:35 | 41.21937 | -79.06742 | 31627 ft | 430 kts | 60° |
| 2026-05-03 20:35 | 41.23166 | -79.03101 | 31883 ft | 429 kts | 60° |
| 2026-05-03 20:35 | 41.24368 | -78.99535 | 32104 ft | 429 kts | 60° |
| 2026-05-03 20:35 | 41.25603 | -78.95866 | 32306 ft | 431 kts | 60° |
| 2026-05-03 20:36 | 41.26821 | -78.92241 | 32517 ft | 431 kts | 60° |
| 2026-05-03 20:36 | 41.28036 | -78.88623 | 32718 ft | 431 kts | 60° |
| 2026-05-03 20:36 | 41.29248 | -78.85008 | 32934 ft | 431 kts | 61° |
| 2026-05-03 20:36 | 41.30477 | -78.81334 | 33130 ft | 431 kts | 61° |
| 2026-05-03 20:37 | 41.31694 | -78.77696 | 33330 ft | 431 kts | 60° |
| 2026-05-03 20:37 | 41.32905 | -78.74068 | 33506 ft | 431 kts | 61° |
| 2026-05-03 20:37 | 41.34121 | -78.70420 | 33665 ft | 432 kts | 61° |
| 2026-05-03 20:37 | 41.35349 | -78.66734 | 33851 ft | 432 kts | 61° |
| 2026-05-03 20:38 | 41.36557 | -78.63098 | 34052 ft | 432 kts | 61° |
| 2026-05-03 20:38 | 41.37774 | -78.59431 | 34279 ft | 432 kts | 61° |
| 2026-05-03 20:38 | 41.38985 | -78.55779 | 34490 ft | 432 kts | 61° |
| 2026-05-03 20:38 | 41.40179 | -78.52174 | 34692 ft | 432 kts | 61° |
| 2026-05-03 20:39 | 41.41401 | -78.48480 | 34903 ft | 432 kts | 61° |
| 2026-05-03 20:39 | 41.42605 | -78.44834 | 35111 ft | 432 kts | 61° |
| 2026-05-03 20:39 | 41.43812 | -78.41176 | 35322 ft | 431 kts | 62° |
| 2026-05-03 20:39 | 41.45011 | -78.37537 | 35531 ft | 431 kts | 62° |
| 2026-05-03 20:40 | 41.46213 | -78.33885 | 35735 ft | 430 kts | 62° |
| 2026-05-03 20:40 | 41.47408 | -78.30245 | 35935 ft | 429 kts | 63° |
| 2026-05-03 20:40 | 41.48613 | -78.26569 | 36143 ft | 428 kts | 62° |
| 2026-05-03 20:40 | 41.49796 | -78.22956 | 36357 ft | 427 kts | 62° |
| 2026-05-03 20:41 | 41.50990 | -78.19308 | 36557 ft | 425 kts | 62° |
| 2026-05-03 20:41 | 41.52167 | -78.15704 | 36752 ft | 423 kts | 63° |
| 2026-05-03 20:41 | 41.53341 | -78.12108 | 36896 ft | 423 kts | 63° |
| 2026-05-03 20:42 | 41.55714 | -78.04839 | 36931 ft | 432 kts | 63° |
| 2026-05-03 20:42 | 41.58131 | -77.97418 | 36925 ft | 442 kts | 63° |
| 2026-05-03 20:43 | 41.60601 | -77.89809 | 36921 ft | 452 kts | 63° |
| 2026-05-03 20:43 | 41.63126 | -77.82001 | 36915 ft | 463 kts | 63° |
| 2026-05-03 20:44 | 41.65685 | -77.74061 | 36919 ft | 474 kts | 63° |
| 2026-05-03 20:44 | 41.68326 | -77.65841 | 36918 ft | 486 kts | 63° |
| 2026-05-03 20:45 | 41.70950 | -77.57631 | 36924 ft | 480 kts | 63° |
| 2026-05-03 20:45 | 41.73601 | -77.49323 | 36918 ft | 487 kts | 64° |
| 2026-05-03 20:46 | 41.76250 | -77.40997 | 36916 ft | 487 kts | 64° |
| 2026-05-03 20:46 | 41.78904 | -77.32626 | 36915 ft | 487 kts | 64° |
| 2026-05-03 20:47 | 41.81547 | -77.24267 | 36914 ft | 487 kts | 64° |
| 2026-05-03 20:47 | 41.84184 | -77.15906 | 36911 ft | 487 kts | 64° |
| 2026-05-03 20:48 | 41.86810 | -77.07549 | 36922 ft | 488 kts | 64° |
| 2026-05-03 20:48 | 41.89443 | -76.99149 | 36910 ft | 488 kts | 65° |
| 2026-05-03 20:49 | 41.92059 | -76.90774 | 36907 ft | 488 kts | 64° |
| 2026-05-03 20:49 | 41.94665 | -76.82408 | 36911 ft | 488 kts | 65° |
| 2026-05-03 20:50 | 41.97287 | -76.73962 | 36904 ft | 487 kts | 65° |
| 2026-05-03 20:50 | 41.99878 | -76.65588 | 36907 ft | 487 kts | 65° |
| 2026-05-03 20:51 | 42.02473 | -76.57169 | 36911 ft | 486 kts | 64° |
| 2026-05-03 20:51 | 42.05034 | -76.48842 | 36909 ft | 486 kts | 65° |
| 2026-05-03 20:52 | 42.07607 | -76.40447 | 36907 ft | 486 kts | 65° |
| 2026-05-03 20:52 | 42.10174 | -76.32044 | 36908 ft | 486 kts | 65° |
| 2026-05-03 20:53 | 42.12741 | -76.23614 | 36907 ft | 485 kts | 65° |
| 2026-05-03 20:53 | 42.15315 | -76.15140 | 36914 ft | 488 kts | 65° |
| 2026-05-03 20:54 | 42.17994 | -76.06773 | 36917 ft | 486 kts | 63° |
| 2026-05-03 20:54 | 42.22334 | -75.94487 | 36914 ft | 485 kts | 62° |
| 2026-05-03 20:55 | 42.25254 | -75.86260 | 36911 ft | 485 kts | 62° |
| 2026-05-03 20:55 | 42.28125 | -75.78059 | 36897 ft | 484 kts | 62° |
| 2026-05-03 20:56 | 42.30987 | -75.69797 | 36893 ft | 485 kts | 62° |
| 2026-05-03 20:56 | 42.33815 | -75.61584 | 36890 ft | 486 kts | 63° |
| 2026-05-03 20:57 | 42.35241 | -75.57430 | 36631 ft | 489 kts | 62° |
| 2026-05-03 20:57 | 42.36657 | -75.53294 | 36228 ft | 487 kts | 62° |
| 2026-05-03 20:57 | 42.38076 | -75.49139 | 35826 ft | 484 kts | 62° |
| 2026-05-03 20:57 | 42.39496 | -75.44974 | 35418 ft | 480 kts | 62° |
| 2026-05-03 20:58 | 42.40880 | -75.40910 | 35007 ft | 477 kts | 62° |
| 2026-05-03 20:58 | 42.42255 | -75.36868 | 34602 ft | 475 kts | 62° |
| 2026-05-03 20:58 | 42.43607 | -75.32840 | 34182 ft | 475 kts | 64° |
| 2026-05-03 20:58 | 42.44835 | -75.28661 | 33780 ft | 478 kts | 68° |
| 2026-05-03 20:59 | 42.45817 | -75.24271 | 33380 ft | 480 kts | 74° |
| 2026-05-03 20:59 | 42.46460 | -75.19822 | 33029 ft | 483 kts | 79° |
| 2026-05-03 20:59 | 42.46841 | -75.15264 | 32681 ft | 484 kts | 83° |
| 2026-05-03 20:59 | 42.47046 | -75.10694 | 32330 ft | 484 kts | 85° |
| 2026-05-03 21:00 | 42.47164 | -75.06180 | 31979 ft | 484 kts | 86° |
| 2026-05-03 21:00 | 42.47223 | -75.03116 | 31736 ft | 484 kts | 86° |
| 2026-05-03 21:00 | 42.47316 | -74.97070 | 31245 ft | 484 kts | 86° |
| 2026-05-03 21:00 | 42.47381 | -74.92480 | 30818 ft | 485 kts | 86° |
| 2026-05-03 21:01 | 42.47446 | -74.87934 | 30296 ft | 485 kts | 86° |
| 2026-05-03 21:01 | 42.47515 | -74.83364 | 29777 ft | 484 kts | 85° |
| 2026-05-03 21:01 | 42.47587 | -74.78807 | 29260 ft | 485 kts | 85° |
| 2026-05-03 21:01 | 42.47661 | -74.74274 | 28745 ft | 485 kts | 85° |
| 2026-05-03 21:02 | 42.47738 | -74.69673 | 28224 ft | 486 kts | 85° |
| 2026-05-03 21:02 | 42.47815 | -74.65102 | 27710 ft | 487 kts | 85° |
| 2026-05-03 21:02 | 42.47893 | -74.60517 | 27196 ft | 488 kts | 85° |
| 2026-05-03 21:02 | 42.47969 | -74.55949 | 26684 ft | 489 kts | 85° |
| 2026-05-03 21:03 | 42.48045 | -74.51317 | 26162 ft | 484 kts | 85° |
| 2026-05-03 21:03 | 42.48115 | -74.46794 | 25644 ft | 478 kts | 85° |
| 2026-05-03 21:03 | 42.48181 | -74.42377 | 25124 ft | 472 kts | 85° |
| 2026-05-03 21:03 | 42.48247 | -74.37923 | 24587 ft | 466 kts | 84° |
| 2026-05-03 21:04 | 42.48310 | -74.33590 | 24053 ft | 461 kts | 85° |
| 2026-05-03 21:04 | 42.48372 | -74.29236 | 23501 ft | 455 kts | 85° |
| 2026-05-03 21:04 | 42.48432 | -74.24995 | 22734 ft | 450 kts | 85° |
| 2026-05-03 21:04 | 42.48488 | -74.20802 | 21932 ft | 438 kts | 85° |
| 2026-05-03 21:05 | 42.48539 | -74.16778 | 21142 ft | 428 kts | 85° |
| 2026-05-03 21:05 | 42.48590 | -74.12808 | 20344 ft | 419 kts | 85° |
| 2026-05-03 21:05 | 42.48640 | -74.08884 | 19536 ft | 410 kts | 85° |
| 2026-05-03 21:05 | 42.48688 | -74.05069 | 18738 ft | 402 kts | 85° |
| 2026-05-03 21:06 | 42.48735 | -74.01330 | 17955 ft | 395 kts | 85° |
| 2026-05-03 21:06 | 42.48780 | -73.97623 | 17172 ft | 388 kts | 85° |
| 2026-05-03 21:06 | 42.48824 | -73.94009 | 16396 ft | 382 kts | 85° |
| 2026-05-03 21:06 | 42.48865 | -73.90451 | 15618 ft | 376 kts | 85° |